sensor_id;sensor_type;location;lat;lon;timestamp;P1;durP1;ratioP1;P2;durP2;ratioP2
64282;SDS011;50497;50.720;-2.084;2022-09-16T00:01:13;6.25;;;1.70;;
64282;SDS011;50497;50.720;-2.084;2022-09-16T00:03:47;5.38;;;1.65;;
64282;SDS011;50497;50.720;-2.084;2022-09-16T00:06:22;5.25;;;1.70;;
64282;SDS011;50497;50.720;-2.084;2022-09-16T00:08:49;5.07;;;1.70;;
64282;SDS011;50497;50.720;-2.084;2022-09-16T00:11:23;6.32;;;1.70;;
64282;SDS011;50497;50.720;-2.084;2022-09-16T00:13:53;5.78;;;1.80;;
64282;SDS011;50497;50.720;-2.084;2022-09-16T00:16:26;4.97;;;1.50;;
64282;SDS011;50497;50.720;-2.084;2022-09-16T00:19:00;5.82;;;1.70;;
64282;SDS011;50497;50.720;-2.084;2022-09-16T00:21:30;4.30;;;1.60;;
64282;SDS011;50497;50.720;-2.084;2022-09-16T00:23:59;5.60;;;1.90;;
64282;SDS011;50497;50.720;-2.084;2022-09-16T00:26:35;6.25;;;1.80;;
64282;SDS011;50497;50.720;-2.084;2022-09-16T00:29:09;4.18;;;1.60;;
64282;SDS011;50497;50.720;-2.084;2022-09-16T00:34:11;5.03;;;1.65;;
64282;SDS011;50497;50.720;-2.084;2022-09-16T00:36:41;6.43;;;1.60;;
64282;SDS011;50497;50.720;-2.084;2022-09-16T00:39:11;4.07;;;1.60;;
64282;SDS011;50497;50.720;-2.084;2022-09-16T00:41:40;4.63;;;1.58;;
64282;SDS011;50497;50.720;-2.084;2022-09-16T00:53:02;4.50;;;1.50;;
64282;SDS011;50497;50.720;-2.084;2022-09-16T00:55:33;4.50;;;1.70;;
64282;SDS011;50497;50.720;-2.084;2022-09-16T00:58:07;5.47;;;1.80;;
64282;SDS011;50497;50.720;-2.084;2022-09-16T01:00:55;7.05;;;1.75;;
64282;SDS011;50497;50.720;-2.084;2022-09-16T01:03:22;5.80;;;1.65;;
64282;SDS011;50497;50.720;-2.084;2022-09-16T01:05:52;4.38;;;1.60;;
64282;SDS011;50497;50.720;-2.084;2022-09-16T01:08:21;5.18;;;1.63;;
64282;SDS011;50497;50.720;-2.084;2022-09-16T01:10:50;4.07;;;1.60;;
64282;SDS011;50497;50.720;-2.084;2022-09-16T01:13:16;4.20;;;1.60;;
64282;SDS011;50497;50.720;-2.084;2022-09-16T01:33:15;6.55;;;1.70;;
64282;SDS011;50497;50.720;-2.084;2022-09-16T01:36:03;5.60;;;1.65;;
64282;SDS011;50497;50.720;-2.084;2022-09-16T01:47:02;4.80;;;1.50;;
64282;SDS011;50497;50.720;-2.084;2022-09-16T01:49:54;6.95;;;1.77;;
64282;SDS011;50497;50.720;-2.084;2022-09-16T01:55:25;4.03;;;1.58;;
64282;SDS011;50497;50.720;-2.084;2022-09-16T02:00:29;5.25;;;1.48;;
64282;SDS011;50497;50.720;-2.084;2022-09-16T02:03:06;5.45;;;1.60;;
64282;SDS011;50497;50.720;-2.084;2022-09-16T02:05:41;3.42;;;1.58;;
64282;SDS011;50497;50.720;-2.084;2022-09-16T02:08:18;5.10;;;1.50;;
64282;SDS011;50497;50.720;-2.084;2022-09-16T02:10:58;4.95;;;1.67;;
64282;SDS011;50497;50.720;-2.084;2022-09-16T02:13:35;3.30;;;1.30;;
64282;SDS011;50497;50.720;-2.084;2022-09-16T02:16:09;3.63;;;1.50;;
64282;SDS011;50497;50.720;-2.084;2022-09-16T02:18:45;4.25;;;1.55;;
64282;SDS011;50497;50.720;-2.084;2022-09-16T02:21:17;3.70;;;1.50;;
64282;SDS011;50497;50.720;-2.084;2022-09-16T02:23:50;4.28;;;1.50;;
64282;SDS011;50497;50.720;-2.084;2022-09-16T02:26:20;4.45;;;1.52;;
64282;SDS011;50497;50.720;-2.084;2022-09-16T02:28:51;4.95;;;1.67;;
64282;SDS011;50497;50.720;-2.084;2022-09-16T02:31:21;6.07;;;1.67;;
64282;SDS011;50497;50.720;-2.084;2022-09-16T02:33:54;4.07;;;2.10;;
64282;SDS011;50497;50.720;-2.084;2022-09-16T02:36:27;4.05;;;1.48;;
64282;SDS011;50497;50.720;-2.084;2022-09-16T02:39:00;3.90;;;1.58;;
64282;SDS011;50497;50.720;-2.084;2022-09-16T02:41:37;5.72;;;1.80;;
64282;SDS011;50497;50.720;-2.084;2022-09-16T02:44:04;4.18;;;1.60;;
64282;SDS011;50497;50.720;-2.084;2022-09-16T02:55:04;5.45;;;1.60;;
64282;SDS011;50497;50.720;-2.084;2022-09-16T02:57:38;5.18;;;1.70;;
64282;SDS011;50497;50.720;-2.084;2022-09-16T03:00:07;4.72;;;1.65;;
64282;SDS011;50497;50.720;-2.084;2022-09-16T03:02:38;6.50;;;1.90;;
64282;SDS011;50497;50.720;-2.084;2022-09-16T03:05:06;5.18;;;2.05;;
64282;SDS011;50497;50.720;-2.084;2022-09-16T03:07:40;7.43;;;2.00;;
64282;SDS011;50497;50.720;-2.084;2022-09-16T03:10:11;6.13;;;2.00;;
64282;SDS011;50497;50.720;-2.084;2022-09-16T03:15:47;5.97;;;1.80;;
64282;SDS011;50497;50.720;-2.084;2022-09-16T03:18:16;4.55;;;1.90;;
64282;SDS011;50497;50.720;-2.084;2022-09-16T03:23:45;5.68;;;1.90;;
64282;SDS011;50497;50.720;-2.084;2022-09-16T03:26:31;7.53;;;2.10;;
64282;SDS011;50497;50.720;-2.084;2022-09-16T03:34:58;6.88;;;2.20;;
64282;SDS011;50497;50.720;-2.084;2022-09-16T03:37:33;4.93;;;1.83;;
64282;SDS011;50497;50.720;-2.084;2022-09-16T03:40:07;5.28;;;1.70;;
64282;SDS011;50497;50.720;-2.084;2022-09-16T03:42:42;5.85;;;2.03;;
64282;SDS011;50497;50.720;-2.084;2022-09-16T03:45:15;5.45;;;1.90;;
64282;SDS011;50497;50.720;-2.084;2022-09-16T03:47:47;5.15;;;1.80;;
64282;SDS011;50497;50.720;-2.084;2022-09-16T03:50:20;5.68;;;1.77;;
64282;SDS011;50497;50.720;-2.084;2022-09-16T03:52:52;5.32;;;1.83;;
64282;SDS011;50497;50.720;-2.084;2022-09-16T03:55:21;6.25;;;2.70;;
64282;SDS011;50497;50.720;-2.084;2022-09-16T03:57:59;5.32;;;1.83;;
64282;SDS011;50497;50.720;-2.084;2022-09-16T04:00:24;4.57;;;1.73;;
64282;SDS011;50497;50.720;-2.084;2022-09-16T04:02:55;4.70;;;1.80;;
64282;SDS011;50497;50.720;-2.084;2022-09-16T04:05:28;5.07;;;2.00;;
64282;SDS011;50497;50.720;-2.084;2022-09-16T04:07:55;5.30;;;1.70;;
64282;SDS011;50497;50.720;-2.084;2022-09-16T04:10:21;8.32;;;1.80;;
64282;SDS011;50497;50.720;-2.084;2022-09-16T04:12:47;5.40;;;1.83;;
64282;SDS011;50497;50.720;-2.084;2022-09-16T04:15:13;7.13;;;1.80;;
64282;SDS011;50497;50.720;-2.084;2022-09-16T04:17:42;9.73;;;1.83;;
64282;SDS011;50497;50.720;-2.084;2022-09-16T04:20:12;5.00;;;1.80;;
64282;SDS011;50497;50.720;-2.084;2022-09-16T04:22:43;4.22;;;1.55;;
64282;SDS011;50497;50.720;-2.084;2022-09-16T04:25:08;4.72;;;1.63;;
64282;SDS011;50497;50.720;-2.084;2022-09-16T04:27:42;6.10;;;1.60;;
64282;SDS011;50497;50.720;-2.084;2022-09-16T04:30:11;8.57;;;2.05;;
64282;SDS011;50497;50.720;-2.084;2022-09-16T04:32:37;6.80;;;1.85;;
64282;SDS011;50497;50.720;-2.084;2022-09-16T04:35:03;4.47;;;1.60;;
64282;SDS011;50497;50.720;-2.084;2022-09-16T04:37:29;4.63;;;1.67;;
64282;SDS011;50497;50.720;-2.084;2022-09-16T04:39:55;4.68;;;1.70;;
64282;SDS011;50497;50.720;-2.084;2022-09-16T04:42:21;5.70;;;1.73;;
64282;SDS011;50497;50.720;-2.084;2022-09-16T04:44:46;7.45;;;1.60;;
64282;SDS011;50497;50.720;-2.084;2022-09-16T04:47:15;5.75;;;1.70;;
64282;SDS011;50497;50.720;-2.084;2022-09-16T04:49:41;4.35;;;1.70;;
64282;SDS011;50497;50.720;-2.084;2022-09-16T04:52:10;4.57;;;1.60;;
64282;SDS011;50497;50.720;-2.084;2022-09-16T04:54:35;4.63;;;1.70;;
64282;SDS011;50497;50.720;-2.084;2022-09-16T04:57:01;6.38;;;1.83;;
64282;SDS011;50497;50.720;-2.084;2022-09-16T04:59:26;3.80;;;1.55;;
64282;SDS011;50497;50.720;-2.084;2022-09-16T05:01:52;5.20;;;1.63;;
64282;SDS011;50497;50.720;-2.084;2022-09-16T05:04:17;5.22;;;1.70;;
64282;SDS011;50497;50.720;-2.084;2022-09-16T05:06:43;4.10;;;1.70;;
64282;SDS011;50497;50.720;-2.084;2022-09-16T05:09:09;5.32;;;1.75;;
64282;SDS011;50497;50.720;-2.084;2022-09-16T05:11:36;5.07;;;2.10;;
64282;SDS011;50497;50.720;-2.084;2022-09-16T05:14:09;5.95;;;1.85;;
64282;SDS011;50497;50.720;-2.084;2022-09-16T05:16:37;4.35;;;1.92;;
64282;SDS011;50497;50.720;-2.084;2022-09-16T05:19:12;4.13;;;1.52;;
64282;SDS011;50497;50.720;-2.084;2022-09-16T05:21:40;5.05;;;1.90;;
64282;SDS011;50497;50.720;-2.084;2022-09-16T05:24:11;4.78;;;1.70;;
64282;SDS011;50497;50.720;-2.084;2022-09-16T05:26:38;4.15;;;1.60;;
64282;SDS011;50497;50.720;-2.084;2022-09-16T05:29:07;4.97;;;1.70;;
64282;SDS011;50497;50.720;-2.084;2022-09-16T05:31:36;4.57;;;1.60;;
64282;SDS011;50497;50.720;-2.084;2022-09-16T05:34:09;5.63;;;1.80;;
64282;SDS011;50497;50.720;-2.084;2022-09-16T05:36:38;5.30;;;2.10;;
64282;SDS011;50497;50.720;-2.084;2022-09-16T05:39:07;5.50;;;1.85;;
64282;SDS011;50497;50.720;-2.084;2022-09-16T05:41:33;4.97;;;1.83;;
64282;SDS011;50497;50.720;-2.084;2022-09-16T05:44:02;4.18;;;1.80;;
64282;SDS011;50497;50.720;-2.084;2022-09-16T05:46:28;5.70;;;1.60;;
64282;SDS011;50497;50.720;-2.084;2022-09-16T05:48:54;5.85;;;1.90;;
64282;SDS011;50497;50.720;-2.084;2022-09-16T05:51:24;6.63;;;1.75;;
64282;SDS011;50497;50.720;-2.084;2022-09-16T05:53:50;5.78;;;1.50;;
64282;SDS011;50497;50.720;-2.084;2022-09-16T05:56:18;6.25;;;1.77;;
64282;SDS011;50497;50.720;-2.084;2022-09-16T05:58:46;4.35;;;1.67;;
64282;SDS011;50497;50.720;-2.084;2022-09-16T06:01:13;5.95;;;1.85;;
64282;SDS011;50497;50.720;-2.084;2022-09-16T06:03:43;5.03;;;1.75;;
64282;SDS011;50497;50.720;-2.084;2022-09-16T06:08:47;5.40;;;1.88;;
64282;SDS011;50497;50.720;-2.084;2022-09-16T06:11:13;5.30;;;2.00;;
64282;SDS011;50497;50.720;-2.084;2022-09-16T06:13:40;5.03;;;1.63;;
64282;SDS011;50497;50.720;-2.084;2022-09-16T06:16:25;4.90;;;1.83;;
64282;SDS011;50497;50.720;-2.084;2022-09-16T06:18:52;7.55;;;1.80;;
64282;SDS011;50497;50.720;-2.084;2022-09-16T06:21:19;5.65;;;1.90;;
64282;SDS011;50497;50.720;-2.084;2022-09-16T06:23:50;5.43;;;1.80;;
64282;SDS011;50497;50.720;-2.084;2022-09-16T06:26:17;5.93;;;1.80;;
64282;SDS011;50497;50.720;-2.084;2022-09-16T06:28:48;4.88;;;1.70;;
64282;SDS011;50497;50.720;-2.084;2022-09-16T06:33:49;4.88;;;1.70;;
64282;SDS011;50497;50.720;-2.084;2022-09-16T06:36:22;6.03;;;1.70;;
64282;SDS011;50497;50.720;-2.084;2022-09-16T06:38:54;6.25;;;2.03;;
64282;SDS011;50497;50.720;-2.084;2022-09-16T06:41:20;6.80;;;2.08;;
64282;SDS011;50497;50.720;-2.084;2022-09-16T06:43:47;8.05;;;2.00;;
64282;SDS011;50497;50.720;-2.084;2022-09-16T06:46:19;6.25;;;1.80;;
64282;SDS011;50497;50.720;-2.084;2022-09-16T06:48:47;7.63;;;2.25;;
64282;SDS011;50497;50.720;-2.084;2022-09-16T06:51:19;8.40;;;1.90;;
64282;SDS011;50497;50.720;-2.084;2022-09-16T06:53:53;5.10;;;1.73;;
64282;SDS011;50497;50.720;-2.084;2022-09-16T06:56:23;5.55;;;1.90;;
64282;SDS011;50497;50.720;-2.084;2022-09-16T06:58:49;5.22;;;1.75;;
64282;SDS011;50497;50.720;-2.084;2022-09-16T07:01:24;5.72;;;2.00;;
64282;SDS011;50497;50.720;-2.084;2022-09-16T07:03:53;4.72;;;1.83;;
64282;SDS011;50497;50.720;-2.084;2022-09-16T07:06:23;4.32;;;1.67;;
64282;SDS011;50497;50.720;-2.084;2022-09-16T07:08:53;5.68;;;1.80;;
64282;SDS011;50497;50.720;-2.084;2022-09-16T07:11:21;4.22;;;1.50;;
64282;SDS011;50497;50.720;-2.084;2022-09-16T07:13:48;4.90;;;1.60;;
64282;SDS011;50497;50.720;-2.084;2022-09-16T07:18:41;4.38;;;1.42;;
64282;SDS011;50497;50.720;-2.084;2022-09-16T07:21:20;3.92;;;1.50;;
64282;SDS011;50497;50.720;-2.084;2022-09-16T07:23:56;3.90;;;1.40;;
64282;SDS011;50497;50.720;-2.084;2022-09-16T07:26:32;4.82;;;1.50;;
64282;SDS011;50497;50.720;-2.084;2022-09-16T07:29:00;4.80;;;1.50;;
64282;SDS011;50497;50.720;-2.084;2022-09-16T07:31:28;5.82;;;1.40;;
64282;SDS011;50497;50.720;-2.084;2022-09-16T07:33:56;5.78;;;1.67;;
64282;SDS011;50497;50.720;-2.084;2022-09-16T07:36:27;7.63;;;2.00;;
64282;SDS011;50497;50.720;-2.084;2022-09-16T07:38:54;6.07;;;2.08;;
64282;SDS011;50497;50.720;-2.084;2022-09-16T07:41:29;6.43;;;1.73;;
64282;SDS011;50497;50.720;-2.084;2022-09-16T07:43:57;10.20;;;2.30;;
64282;SDS011;50497;50.720;-2.084;2022-09-16T07:46:25;5.32;;;1.55;;
64282;SDS011;50497;50.720;-2.084;2022-09-16T07:48:52;3.38;;;1.48;;
64282;SDS011;50497;50.720;-2.084;2022-09-16T07:51:19;3.95;;;1.40;;
64282;SDS011;50497;50.720;-2.084;2022-09-16T07:53:47;4.15;;;1.40;;
64282;SDS011;50497;50.720;-2.084;2022-09-16T07:56:19;6.65;;;1.60;;
64282;SDS011;50497;50.720;-2.084;2022-09-16T07:58:51;3.88;;;1.20;;
64282;SDS011;50497;50.720;-2.084;2022-09-16T08:01:18;6.18;;;1.70;;
64282;SDS011;50497;50.720;-2.084;2022-09-16T08:03:44;3.60;;;1.30;;
64282;SDS011;50497;50.720;-2.084;2022-09-16T08:06:20;4.53;;;1.30;;
64282;SDS011;50497;50.720;-2.084;2022-09-16T08:08:55;4.50;;;1.30;;
64282;SDS011;50497;50.720;-2.084;2022-09-16T08:11:21;4.28;;;1.30;;
64282;SDS011;50497;50.720;-2.084;2022-09-16T08:13:52;3.97;;;1.30;;
64282;SDS011;50497;50.720;-2.084;2022-09-16T08:16:19;3.03;;;1.20;;
64282;SDS011;50497;50.720;-2.084;2022-09-16T08:18:48;4.63;;;1.33;;
64282;SDS011;50497;50.720;-2.084;2022-09-16T08:21:19;3.83;;;1.38;;
64282;SDS011;50497;50.720;-2.084;2022-09-16T08:23:45;4.68;;;1.30;;
64282;SDS011;50497;50.720;-2.084;2022-09-16T08:26:13;4.60;;;1.40;;
64282;SDS011;50497;50.720;-2.084;2022-09-16T08:28:40;3.70;;;1.40;;
64282;SDS011;50497;50.720;-2.084;2022-09-16T08:31:07;4.18;;;1.13;;
64282;SDS011;50497;50.720;-2.084;2022-09-16T08:33:34;3.92;;;1.13;;
64282;SDS011;50497;50.720;-2.084;2022-09-16T08:36:00;4.75;;;1.30;;
64282;SDS011;50497;50.720;-2.084;2022-09-16T08:38:29;2.63;;;1.02;;
64282;SDS011;50497;50.720;-2.084;2022-09-16T08:40:58;6.15;;;1.33;;
64282;SDS011;50497;50.720;-2.084;2022-09-16T08:43:34;4.18;;;1.13;;
64282;SDS011;50497;50.720;-2.084;2022-09-16T08:46:13;4.00;;;1.10;;
64282;SDS011;50497;50.720;-2.084;2022-09-16T08:48:55;4.68;;;1.27;;
64282;SDS011;50497;50.720;-2.084;2022-09-16T08:51:31;5.20;;;1.10;;
64282;SDS011;50497;50.720;-2.084;2022-09-16T08:56:29;5.07;;;1.30;;
64282;SDS011;50497;50.720;-2.084;2022-09-16T08:59:00;3.55;;;1.20;;
64282;SDS011;50497;50.720;-2.084;2022-09-16T09:01:33;4.38;;;1.40;;
64282;SDS011;50497;50.720;-2.084;2022-09-16T09:03:59;3.65;;;1.23;;
64282;SDS011;50497;50.720;-2.084;2022-09-16T09:09:22;2.25;;;1.05;;
64282;SDS011;50497;50.720;-2.084;2022-09-16T09:14:40;5.00;;;1.15;;
64282;SDS011;50497;50.720;-2.084;2022-09-16T09:22:23;4.13;;;1.15;;
64282;SDS011;50497;50.720;-2.084;2022-09-16T09:27:50;2.80;;;1.27;;
64282;SDS011;50497;50.720;-2.084;2022-09-16T09:30:43;2.90;;;1.08;;
64282;SDS011;50497;50.720;-2.084;2022-09-16T09:41:57;3.95;;;1.30;;
64282;SDS011;50497;50.720;-2.084;2022-09-16T09:44:40;4.55;;;1.30;;
64282;SDS011;50497;50.720;-2.084;2022-09-16T09:47:20;5.10;;;1.40;;
64282;SDS011;50497;50.720;-2.084;2022-09-16T09:49:50;5.03;;;1.30;;
64282;SDS011;50497;50.720;-2.084;2022-09-16T09:55:17;3.15;;;1.20;;
64282;SDS011;50497;50.720;-2.084;2022-09-16T10:00:18;4.75;;;1.33;;
64282;SDS011;50497;50.720;-2.084;2022-09-16T10:02:47;4.45;;;1.40;;
64282;SDS011;50497;50.720;-2.084;2022-09-16T10:07:51;3.38;;;1.15;;
64282;SDS011;50497;50.720;-2.084;2022-09-16T10:10:30;4.80;;;1.50;;
64282;SDS011;50497;50.720;-2.084;2022-09-16T10:13:08;4.13;;;1.02;;
64282;SDS011;50497;50.720;-2.084;2022-09-16T10:15:41;3.28;;;1.30;;
64282;SDS011;50497;50.720;-2.084;2022-09-16T10:18:11;3.53;;;1.17;;
64282;SDS011;50497;50.720;-2.084;2022-09-16T10:20:44;3.45;;;1.17;;
64282;SDS011;50497;50.720;-2.084;2022-09-16T10:23:51;3.45;;;1.20;;
64282;SDS011;50497;50.720;-2.084;2022-09-16T10:26:24;3.42;;;0.90;;
64282;SDS011;50497;50.720;-2.084;2022-09-16T10:31:34;3.67;;;1.00;;
64282;SDS011;50497;50.720;-2.084;2022-09-16T10:34:02;2.45;;;0.90;;
64282;SDS011;50497;50.720;-2.084;2022-09-16T10:36:37;2.45;;;0.90;;
64282;SDS011;50497;50.720;-2.084;2022-09-16T10:39:02;2.70;;;1.00;;
64282;SDS011;50497;50.720;-2.084;2022-09-16T10:41:31;2.47;;;0.90;;
64282;SDS011;50497;50.720;-2.084;2022-09-16T10:44:01;3.28;;;1.02;;
64282;SDS011;50497;50.720;-2.084;2022-09-16T10:46:35;2.63;;;0.93;;
64282;SDS011;50497;50.720;-2.084;2022-09-16T10:49:08;3.20;;;1.15;;
64282;SDS011;50497;50.720;-2.084;2022-09-16T10:51:35;3.15;;;0.95;;
64282;SDS011;50497;50.720;-2.084;2022-09-16T10:54:02;3.83;;;0.93;;
64282;SDS011;50497;50.720;-2.084;2022-09-16T10:56:34;3.90;;;1.10;;
64282;SDS011;50497;50.720;-2.084;2022-09-16T10:59:12;3.15;;;1.00;;
64282;SDS011;50497;50.720;-2.084;2022-09-16T11:07:02;4.25;;;1.10;;
64282;SDS011;50497;50.720;-2.084;2022-09-16T11:15:35;3.72;;;1.10;;
64282;SDS011;50497;50.720;-2.084;2022-09-16T11:21:06;4.53;;;1.33;;
64282;SDS011;50497;50.720;-2.084;2022-09-16T11:27:13;7.38;;;3.30;;
64282;SDS011;50497;50.720;-2.084;2022-09-16T11:35:31;2.95;;;1.10;;
64282;SDS011;50497;50.720;-2.084;2022-09-16T11:44:04;4.43;;;1.45;;
64282;SDS011;50497;50.720;-2.084;2022-09-16T11:46:53;3.72;;;1.30;;
64282;SDS011;50497;50.720;-2.084;2022-09-16T11:52:37;3.55;;;1.10;;
64282;SDS011;50497;50.720;-2.084;2022-09-16T11:55:17;3.67;;;1.10;;
64282;SDS011;50497;50.720;-2.084;2022-09-16T11:57:52;2.75;;;1.20;;
64282;SDS011;50497;50.720;-2.084;2022-09-16T12:00:23;2.90;;;1.20;;
64282;SDS011;50497;50.720;-2.084;2022-09-16T12:05:39;3.95;;;1.25;;
64282;SDS011;50497;50.720;-2.084;2022-09-16T12:13:10;3.45;;;1.10;;
64282;SDS011;50497;50.720;-2.084;2022-09-16T12:15:58;3.38;;;1.20;;
64282;SDS011;50497;50.720;-2.084;2022-09-16T12:18:41;3.08;;;1.23;;
64282;SDS011;50497;50.720;-2.084;2022-09-16T12:21:15;5.18;;;1.20;;
64282;SDS011;50497;50.720;-2.084;2022-09-16T12:23:48;2.25;;;0.90;;
64282;SDS011;50497;50.720;-2.084;2022-09-16T12:26:28;2.63;;;1.10;;
64282;SDS011;50497;50.720;-2.084;2022-09-16T12:31:54;2.65;;;1.10;;
64282;SDS011;50497;50.720;-2.084;2022-09-16T12:34:34;3.55;;;1.00;;
64282;SDS011;50497;50.720;-2.084;2022-09-16T12:39:34;2.45;;;1.00;;
64282;SDS011;50497;50.720;-2.084;2022-09-16T12:42:15;3.00;;;1.00;;
64282;SDS011;50497;50.720;-2.084;2022-09-16T12:47:50;5.43;;;1.10;;
64282;SDS011;50497;50.720;-2.084;2022-09-16T13:01:38;2.20;;;0.95;;
64282;SDS011;50497;50.720;-2.084;2022-09-16T13:04:09;2.78;;;1.00;;
64282;SDS011;50497;50.720;-2.084;2022-09-16T13:06:44;2.80;;;0.95;;
64282;SDS011;50497;50.720;-2.084;2022-09-16T13:12:21;2.80;;;1.10;;
64282;SDS011;50497;50.720;-2.084;2022-09-16T13:14:50;3.00;;;1.10;;
64282;SDS011;50497;50.720;-2.084;2022-09-16T13:17:33;6.93;;;1.20;;
64282;SDS011;50497;50.720;-2.084;2022-09-16T13:20:16;2.58;;;1.00;;
64282;SDS011;50497;50.720;-2.084;2022-09-16T13:22:58;2.53;;;1.10;;
64282;SDS011;50497;50.720;-2.084;2022-09-16T13:25:44;3.45;;;1.15;;
64282;SDS011;50497;50.720;-2.084;2022-09-16T13:28:34;3.05;;;1.10;;
64282;SDS011;50497;50.720;-2.084;2022-09-16T13:36:13;3.10;;;1.10;;
64282;SDS011;50497;50.720;-2.084;2022-09-16T13:38:50;3.90;;;1.30;;
64282;SDS011;50497;50.720;-2.084;2022-09-16T13:49:41;3.38;;;1.10;;
64282;SDS011;50497;50.720;-2.084;2022-09-16T13:55:02;2.40;;;0.93;;
64282;SDS011;50497;50.720;-2.084;2022-09-16T13:57:49;1.90;;;1.00;;
64282;SDS011;50497;50.720;-2.084;2022-09-16T14:14:14;1.80;;;1.00;;
64282;SDS011;50497;50.720;-2.084;2022-09-16T14:16:43;5.32;;;1.10;;
64282;SDS011;50497;50.720;-2.084;2022-09-16T14:21:45;2.67;;;1.00;;
64282;SDS011;50497;50.720;-2.084;2022-09-16T14:24:23;9.07;;;1.90;;
64282;SDS011;50497;50.720;-2.084;2022-09-16T14:26:53;2.80;;;1.00;;
64282;SDS011;50497;50.720;-2.084;2022-09-16T14:29:20;2.90;;;1.13;;
64282;SDS011;50497;50.720;-2.084;2022-09-16T14:31:47;2.88;;;1.23;;
64282;SDS011;50497;50.720;-2.084;2022-09-16T14:34:26;2.80;;;1.20;;
64282;SDS011;50497;50.720;-2.084;2022-09-16T14:36:55;2.53;;;1.10;;
64282;SDS011;50497;50.720;-2.084;2022-09-16T14:39:21;4.72;;;1.30;;
64282;SDS011;50497;50.720;-2.084;2022-09-16T14:41:51;2.58;;;1.10;;
64282;SDS011;50497;50.720;-2.084;2022-09-16T14:47:29;3.15;;;1.35;;
64282;SDS011;50497;50.720;-2.084;2022-09-16T14:50:04;3.67;;;1.50;;
64282;SDS011;50497;50.720;-2.084;2022-09-16T14:52:45;5.80;;;1.90;;
64282;SDS011;50497;50.720;-2.084;2022-09-16T14:55:22;4.75;;;2.00;;
64282;SDS011;50497;50.720;-2.084;2022-09-16T14:57:50;3.47;;;1.67;;
64282;SDS011;50497;50.720;-2.084;2022-09-16T15:00:16;4.60;;;1.40;;
64282;SDS011;50497;50.720;-2.084;2022-09-16T15:05:44;4.03;;;1.70;;
64282;SDS011;50497;50.720;-2.084;2022-09-16T15:08:18;3.35;;;1.48;;
64282;SDS011;50497;50.720;-2.084;2022-09-16T15:10:53;6.45;;;1.25;;
64282;SDS011;50497;50.720;-2.084;2022-09-16T15:13:27;2.75;;;1.10;;
64282;SDS011;50497;50.720;-2.084;2022-09-16T15:16:01;5.75;;;1.70;;
64282;SDS011;50497;50.720;-2.084;2022-09-16T15:18:33;3.28;;;1.30;;
64282;SDS011;50497;50.720;-2.084;2022-09-16T15:23:56;2.13;;;1.20;;
64282;SDS011;50497;50.720;-2.084;2022-09-16T15:26:37;3.42;;;1.20;;
64282;SDS011;50497;50.720;-2.084;2022-09-16T15:31:49;4.10;;;1.30;;
64282;SDS011;50497;50.720;-2.084;2022-09-16T15:36:51;4.88;;;1.25;;
64282;SDS011;50497;50.720;-2.084;2022-09-16T15:42:00;2.55;;;1.10;;
64282;SDS011;50497;50.720;-2.084;2022-09-16T15:44:42;2.10;;;1.10;;
64282;SDS011;50497;50.720;-2.084;2022-09-16T15:47:19;3.83;;;1.30;;
64282;SDS011;50497;50.720;-2.084;2022-09-16T15:49:45;3.40;;;1.30;;
64282;SDS011;50497;50.720;-2.084;2022-09-16T15:52:14;2.05;;;1.20;;
64282;SDS011;50497;50.720;-2.084;2022-09-16T15:57:24;1.73;;;1.10;;
64282;SDS011;50497;50.720;-2.084;2022-09-16T16:00:11;4.13;;;1.30;;
64282;SDS011;50497;50.720;-2.084;2022-09-16T16:03:14;5.95;;;1.50;;
64282;SDS011;50497;50.720;-2.084;2022-09-16T16:05:48;3.05;;;1.45;;
64282;SDS011;50497;50.720;-2.084;2022-09-16T16:08:35;3.35;;;1.50;;
64282;SDS011;50497;50.720;-2.084;2022-09-16T16:11:08;3.08;;;1.48;;
64282;SDS011;50497;50.720;-2.084;2022-09-16T16:13:35;3.83;;;1.50;;
64282;SDS011;50497;50.720;-2.084;2022-09-16T16:16:01;3.30;;;1.70;;
64282;SDS011;50497;50.720;-2.084;2022-09-16T16:18:32;4.25;;;1.60;;
64282;SDS011;50497;50.720;-2.084;2022-09-16T16:21:03;2.97;;;1.35;;
64282;SDS011;50497;50.720;-2.084;2022-09-16T16:23:31;2.83;;;1.40;;
64282;SDS011;50497;50.720;-2.084;2022-09-16T16:25:58;3.47;;;1.40;;
64282;SDS011;50497;50.720;-2.084;2022-09-16T16:30:49;2.25;;;1.30;;
64282;SDS011;50497;50.720;-2.084;2022-09-16T16:35:40;3.20;;;1.73;;
64282;SDS011;50497;50.720;-2.084;2022-09-16T16:40:31;2.85;;;1.40;;
64282;SDS011;50497;50.720;-2.084;2022-09-16T16:45:21;4.07;;;1.60;;
64282;SDS011;50497;50.720;-2.084;2022-09-16T16:50:13;9.00;;;1.60;;
64282;SDS011;50497;50.720;-2.084;2022-09-16T16:55:04;4.78;;;1.40;;
64282;SDS011;50497;50.720;-2.084;2022-09-16T16:59:55;4.22;;;1.60;;
64282;SDS011;50497;50.720;-2.084;2022-09-16T17:04:46;4.20;;;1.58;;
64282;SDS011;50497;50.720;-2.084;2022-09-16T17:09:37;4.13;;;1.63;;
64282;SDS011;50497;50.720;-2.084;2022-09-16T17:14:29;8.80;;;1.90;;
64282;SDS011;50497;50.720;-2.084;2022-09-16T17:16:56;3.50;;;1.70;;
64282;SDS011;50497;50.720;-2.084;2022-09-16T17:19:23;4.25;;;1.70;;
64282;SDS011;50497;50.720;-2.084;2022-09-16T17:21:50;4.00;;;2.10;;
64282;SDS011;50497;50.720;-2.084;2022-09-16T17:24:20;4.47;;;2.40;;
64282;SDS011;50497;50.720;-2.084;2022-09-16T17:29:12;4.28;;;2.42;;
64282;SDS011;50497;50.720;-2.084;2022-09-16T17:31:38;7.95;;;2.92;;
64282;SDS011;50497;50.720;-2.084;2022-09-16T17:34:04;7.25;;;3.00;;
64282;SDS011;50497;50.720;-2.084;2022-09-16T17:36:36;5.38;;;2.80;;
64282;SDS011;50497;50.720;-2.084;2022-09-16T17:39:04;5.00;;;2.63;;
64282;SDS011;50497;50.720;-2.084;2022-09-16T17:41:32;4.88;;;2.80;;
64282;SDS011;50497;50.720;-2.084;2022-09-16T17:44:06;5.03;;;3.03;;
64282;SDS011;50497;50.720;-2.084;2022-09-16T17:46:33;5.18;;;3.20;;
64282;SDS011;50497;50.720;-2.084;2022-09-16T17:49:03;5.10;;;3.08;;
64282;SDS011;50497;50.720;-2.084;2022-09-16T17:51:31;4.80;;;3.03;;
64282;SDS011;50497;50.720;-2.084;2022-09-16T17:53:58;5.30;;;3.30;;
64282;SDS011;50497;50.720;-2.084;2022-09-16T17:56:23;5.72;;;3.10;;
64282;SDS011;50497;50.720;-2.084;2022-09-16T17:58:50;6.53;;;3.30;;
64282;SDS011;50497;50.720;-2.084;2022-09-16T18:01:21;6.40;;;3.45;;
64282;SDS011;50497;50.720;-2.084;2022-09-16T18:03:49;5.57;;;3.50;;
64282;SDS011;50497;50.720;-2.084;2022-09-16T18:06:27;5.00;;;3.40;;
64282;SDS011;50497;50.720;-2.084;2022-09-16T18:08:54;6.30;;;3.55;;
64282;SDS011;50497;50.720;-2.084;2022-09-16T18:11:23;5.32;;;3.45;;
64282;SDS011;50497;50.720;-2.084;2022-09-16T18:13:52;5.18;;;3.55;;
64282;SDS011;50497;50.720;-2.084;2022-09-16T18:16:19;5.10;;;3.40;;
64282;SDS011;50497;50.720;-2.084;2022-09-16T18:18:48;5.55;;;3.30;;
64282;SDS011;50497;50.720;-2.084;2022-09-16T18:21:15;6.45;;;3.58;;
64282;SDS011;50497;50.720;-2.084;2022-09-16T18:23:44;7.25;;;4.50;;
64282;SDS011;50497;50.720;-2.084;2022-09-16T18:26:11;5.85;;;3.83;;
64282;SDS011;50497;50.720;-2.084;2022-09-16T18:28:39;6.68;;;3.72;;
64282;SDS011;50497;50.720;-2.084;2022-09-16T18:31:06;7.00;;;3.83;;
64282;SDS011;50497;50.720;-2.084;2022-09-16T18:33:40;5.78;;;3.92;;
64282;SDS011;50497;50.720;-2.084;2022-09-16T18:36:08;7.20;;;3.85;;
64282;SDS011;50497;50.720;-2.084;2022-09-16T18:38:37;7.18;;;4.18;;
64282;SDS011;50497;50.720;-2.084;2022-09-16T18:41:12;5.88;;;4.05;;
64282;SDS011;50497;50.720;-2.084;2022-09-16T18:43:40;6.88;;;3.95;;
64282;SDS011;50497;50.720;-2.084;2022-09-16T18:46:09;7.03;;;4.22;;
64282;SDS011;50497;50.720;-2.084;2022-09-16T18:48:35;6.20;;;3.88;;
64282;SDS011;50497;50.720;-2.084;2022-09-16T18:51:00;6.28;;;4.00;;
64282;SDS011;50497;50.720;-2.084;2022-09-16T18:53:26;5.75;;;3.97;;
64282;SDS011;50497;50.720;-2.084;2022-09-16T18:55:52;6.28;;;4.30;;
64282;SDS011;50497;50.720;-2.084;2022-09-16T18:58:18;5.97;;;4.10;;
64282;SDS011;50497;50.720;-2.084;2022-09-16T19:00:43;6.13;;;4.10;;
64282;SDS011;50497;50.720;-2.084;2022-09-16T19:03:13;5.63;;;4.07;;
64282;SDS011;50497;50.720;-2.084;2022-09-16T19:06:03;6.28;;;4.20;;